createdAt,value
2022-10-18T00:02:08.208Z,19.77
2022-10-18T00:05:11.598Z,20.14
2022-10-18T00:08:14.855Z,20.18
2022-10-18T00:11:18.007Z,19.88
2022-10-18T00:14:21.137Z,19.44
2022-10-18T00:17:24.182Z,18.71
2022-10-18T00:20:27.425Z,18.37
2022-10-18T00:23:31.910Z,18.64
2022-10-18T00:26:34.974Z,18.56
2022-10-18T00:29:37.984Z,18.79
2022-10-18T00:32:42.158Z,19.17
2022-10-18T00:35:45.166Z,18.69
2022-10-18T00:38:48.827Z,18.41
2022-10-18T00:41:53.425Z,18.11
2022-10-18T00:45:34.552Z,18.19
2022-10-18T00:48:37.638Z,18.19
2022-10-18T00:51:47.846Z,18.01
2022-10-18T00:54:53.390Z,17.89
2022-10-18T00:57:56.821Z,17.71
2022-10-18T01:00:59.842Z,17.68
2022-10-18T01:04:03.061Z,17.70
2022-10-18T01:07:37.004Z,17.98
2022-10-18T01:11:00.093Z,18.23
2022-10-18T01:14:18.284Z,17.93
2022-10-18T01:17:27.016Z,17.92
2022-10-18T01:20:51.409Z,17.71
2022-10-18T01:24:26.623Z,17.66
2022-10-18T01:27:45.409Z,17.67
2022-10-18T01:31:04.433Z,17.87
2022-10-18T01:34:10.733Z,18.11
2022-10-18T01:37:15.783Z,18.26
2022-10-18T01:40:22.238Z,17.68
2022-10-18T01:43:29.462Z,17.25
2022-10-18T01:46:33.568Z,17.27
2022-10-18T01:49:38.947Z,17.15
2022-10-18T01:52:52.278Z,16.98
2022-10-18T01:56:15.269Z,17.09
2022-10-18T01:59:31.291Z,17.01
2022-10-18T02:02:49.338Z,17.06
2022-10-18T02:06:05.025Z,16.91
2022-10-18T02:09:19.439Z,17.05
2022-10-18T02:12:22.598Z,16.90
2022-10-18T02:15:33.882Z,16.89
2022-10-18T02:19:01.440Z,17.07
2022-10-18T02:22:05.503Z,17.16
2022-10-18T02:25:11.867Z,17.34
2022-10-18T02:28:15.205Z,17.69
2022-10-18T02:31:47.501Z,17.83
2022-10-18T02:35:01.242Z,17.31
2022-10-18T02:38:06.097Z,17.50
2022-10-18T02:41:09.503Z,16.89
2022-10-18T02:44:12.592Z,17.06
2022-10-18T02:47:15.865Z,16.99
2022-10-18T02:50:19.168Z,17.05
2022-10-18T02:53:22.250Z,17.12
2022-10-18T02:56:25.391Z,17.17
2022-10-18T02:59:28.832Z,16.90
2022-10-18T03:02:31.854Z,17.14
2022-10-18T03:05:34.866Z,17.56
2022-10-18T03:08:38.194Z,17.57
2022-10-18T03:11:41.224Z,17.80
2022-10-18T03:14:44.228Z,17.80
2022-10-18T03:17:47.255Z,17.67
2022-10-18T03:20:50.306Z,17.42
2022-10-18T03:23:53.338Z,17.45
2022-10-18T03:26:56.433Z,17.42
2022-10-18T03:30:00.004Z,17.11
2022-10-18T03:33:04.150Z,17.30
2022-10-18T03:36:07.244Z,17.32
2022-10-18T03:39:12.045Z,17.39
2022-10-18T03:42:15.180Z,17.26
2022-10-18T03:45:18.271Z,17.09
2022-10-18T03:48:21.620Z,16.61
2022-10-18T03:51:24.626Z,16.57
2022-10-18T03:54:27.653Z,16.34
2022-10-18T03:57:30.765Z,16.62
2022-10-18T04:00:34.247Z,17.12
2022-10-18T04:03:37.241Z,17.32
2022-10-18T04:06:40.331Z,17.06
2022-10-18T04:09:43.475Z,17.28
2022-10-18T04:12:46.650Z,17.00
2022-10-18T04:15:49.665Z,16.70
2022-10-18T04:18:52.701Z,16.88
2022-10-18T04:21:55.806Z,16.79
2022-10-18T04:25:01.504Z,16.94
2022-10-18T04:28:04.598Z,16.59
2022-10-18T04:31:07.744Z,16.53
2022-10-18T04:34:11.507Z,16.78
2022-10-18T04:37:14.591Z,16.63
2022-10-18T04:40:20.678Z,16.61
2022-10-18T04:43:23.710Z,16.56
2022-10-18T04:46:26.772Z,16.39
2022-10-18T04:49:29.826Z,16.36
2022-10-18T04:52:34.974Z,16.54
2022-10-18T04:55:37.967Z,16.47
2022-10-18T04:58:40.976Z,16.36
2022-10-18T05:01:44.215Z,16.09
2022-10-18T05:04:47.282Z,16.20
2022-10-18T05:07:50.368Z,16.19
2022-10-18T05:10:53.378Z,16.45
2022-10-18T05:13:56.686Z,15.99
2022-10-18T05:17:01.867Z,15.94
2022-10-18T05:20:05.308Z,16.07
2022-10-18T05:23:08.990Z,16.02
2022-10-18T05:26:12.143Z,15.85
2022-10-18T05:29:17.479Z,15.80
2022-10-18T05:32:20.567Z,15.80
2022-10-18T05:35:23.553Z,15.60
2022-10-18T05:38:26.834Z,15.52
2022-10-18T05:41:29.920Z,15.57
2022-10-18T05:44:33.094Z,15.46
2022-10-18T05:47:37.209Z,15.61
2022-10-18T05:50:40.586Z,15.43
2022-10-18T05:53:46.695Z,15.30
2022-10-18T05:56:49.864Z,15.13
2022-10-18T05:59:52.953Z,15.15
2022-10-18T06:02:59.434Z,15.61
2022-10-18T06:06:06.425Z,15.18
2022-10-18T06:09:09.474Z,15.45
2022-10-18T06:12:12.524Z,15.60
2022-10-18T06:15:15.693Z,15.30
2022-10-18T06:18:18.887Z,15.21
2022-10-18T06:21:22.350Z,14.91
2022-10-18T06:24:25.330Z,14.91
2022-10-18T06:27:28.618Z,14.76
2022-10-18T06:30:31.784Z,14.35
2022-10-18T06:33:37.326Z,14.26
2022-10-18T06:36:40.322Z,14.55
2022-10-18T06:39:43.313Z,14.48
2022-10-18T06:42:55.241Z,14.36
2022-10-18T06:46:09.456Z,14.00
2022-10-18T06:49:18.322Z,13.84
2022-10-18T06:52:22.344Z,13.77
2022-10-18T06:55:25.602Z,13.67
2022-10-18T06:58:29.572Z,13.39
2022-10-18T07:01:32.587Z,13.48
2022-10-18T07:04:35.802Z,13.51
2022-10-18T07:07:39.090Z,13.62
2022-10-18T07:10:42.188Z,13.59
2022-10-18T07:13:45.548Z,13.40
2022-10-18T07:16:48.558Z,13.23
2022-10-18T07:19:51.508Z,13.32
2022-10-18T07:22:57.076Z,13.42
2022-10-18T07:26:00.086Z,13.43
2022-10-18T07:29:08.520Z,13.47
2022-10-18T07:32:11.602Z,13.40
2022-10-18T07:35:14.602Z,13.41
2022-10-18T07:38:18.025Z,13.24
2022-10-18T07:41:21.532Z,13.36
2022-10-18T07:44:24.561Z,13.15
2022-10-18T07:47:30.038Z,13.23
2022-10-18T07:50:35.721Z,13.12
2022-10-18T07:53:39.469Z,13.14
2022-10-18T07:56:43.551Z,13.05
2022-10-18T07:59:46.589Z,13.36
2022-10-18T08:02:49.581Z,13.23
2022-10-18T08:05:56.606Z,13.32
2022-10-18T08:09:00.085Z,13.04
2022-10-18T08:12:03.154Z,12.81
2022-10-18T08:15:06.819Z,12.98
2022-10-18T08:18:10.465Z,12.97
2022-10-18T08:21:14.971Z,13.05
2022-10-18T08:24:17.972Z,13.01
2022-10-18T08:27:21.016Z,12.93
2022-10-18T08:30:25.077Z,13.04
2022-10-18T08:33:28.059Z,12.88
2022-10-18T08:36:31.120Z,13.17
2022-10-18T08:39:34.073Z,12.93
2022-10-18T08:43:04.782Z,12.68
2022-10-18T08:46:11.707Z,12.57
2022-10-18T08:49:35.245Z,12.46
2022-10-18T08:52:44.513Z,12.59
2022-10-18T08:55:55.732Z,12.48
2022-10-18T08:58:58.894Z,12.66
2022-10-18T09:02:27.850Z,12.61
2022-10-18T09:06:05.167Z,12.50
2022-10-18T09:09:23.058Z,12.75
2022-10-18T09:13:24.018Z,12.39
2022-10-18T09:16:38.981Z,12.13
2022-10-18T09:19:53.952Z,12.18
2022-10-18T09:23:03.642Z,12.30
2022-10-18T09:26:23.614Z,12.12
2022-10-18T09:29:26.751Z,11.96
2022-10-18T09:33:16.266Z,12.12
2022-10-18T09:36:24.368Z,11.82
2022-10-18T09:39:34.595Z,11.96
2022-10-18T09:42:41.386Z,11.76
2022-10-18T09:45:46.044Z,11.94
2022-10-18T09:48:52.145Z,12.05
2022-10-18T09:51:55.374Z,12.21
2022-10-18T09:55:00.851Z,12.02
2022-10-18T09:58:06.462Z,11.90
2022-10-18T10:01:11.662Z,11.68
2022-10-18T10:04:15.623Z,11.65
2022-10-18T10:07:22.343Z,11.81
2022-10-18T10:10:28.920Z,11.78
2022-10-18T10:13:31.946Z,11.51
2022-10-18T10:16:35.148Z,11.63
2022-10-18T10:19:54.164Z,11.59
2022-10-18T10:23:11.347Z,11.05
2022-10-18T10:26:36.667Z,11.16
2022-10-18T10:29:49.766Z,11.25
2022-10-18T10:32:54.289Z,11.65
2022-10-18T10:36:02.106Z,11.23
2022-10-18T10:39:07.769Z,10.77
2022-10-18T10:42:14.105Z,10.87
2022-10-18T10:45:17.277Z,11.41
2022-10-18T10:48:20.795Z,11.50
2022-10-18T10:51:34.015Z,11.13
2022-10-18T10:54:38.562Z,10.96
2022-10-18T10:57:48.288Z,11.03
2022-10-18T11:00:51.588Z,11.29
2022-10-18T11:03:58.573Z,11.34
2022-10-18T11:07:13.256Z,11.07
2022-10-18T11:10:22.573Z,11.39
2022-10-18T11:13:53.369Z,11.29
2022-10-18T11:17:23.389Z,10.96
2022-10-18T11:20:42.744Z,11.12
2022-10-18T11:23:46.403Z,10.92
2022-10-18T11:26:56.705Z,10.90
2022-10-18T11:30:40.785Z,11.06
2022-10-18T11:34:09.895Z,10.64
2022-10-18T11:37:51.662Z,10.88
2022-10-18T11:41:17.856Z,10.15
2022-10-18T11:44:28.094Z,10.84
2022-10-18T11:47:37.804Z,10.79
2022-10-18T11:50:55.433Z,10.91
2022-10-18T11:54:29.187Z,10.94
2022-10-18T11:57:53.393Z,10.61
2022-10-18T12:00:59.909Z,10.62
2022-10-18T12:04:19.872Z,10.60
2022-10-18T12:07:27.736Z,10.68
2022-10-18T12:10:46.098Z,10.62
2022-10-18T12:14:00.516Z,10.51
2022-10-18T12:17:39.699Z,10.33
2022-10-18T12:20:33.322Z,10.39
2022-10-18T12:23:46.653Z,10.25
2022-10-18T12:26:52.700Z,10.29
2022-10-18T12:30:01.698Z,10.09
2022-10-18T12:33:27.961Z,10.38
2022-10-18T12:36:51.463Z,10.42
2022-10-18T12:40:11.165Z,10.43
2022-10-18T12:43:23.888Z,10.31
2022-10-18T12:46:47.360Z,10.26
2022-10-18T12:50:22.478Z,10.56
2022-10-18T12:53:27.774Z,10.22
2022-10-18T12:56:30.878Z,10.16
2022-10-18T12:59:33.856Z,10.14
2022-10-18T13:02:37.220Z,10.39
2022-10-18T13:05:53.338Z,10.13
2022-10-18T13:09:23.023Z,10.64
2022-10-18T13:12:27.033Z,10.38
2022-10-18T13:15:55.934Z,10.46
2022-10-18T13:19:02.507Z,10.50
2022-10-18T13:22:14.348Z,10.46
2022-10-18T13:25:35.436Z,10.29
2022-10-18T13:28:51.665Z,10.99
2022-10-18T13:32:03.751Z,11.12
2022-10-18T13:35:44.795Z,10.65
2022-10-18T13:38:57.098Z,10.87
2022-10-18T13:42:00.221Z,10.89
2022-10-18T13:45:32.317Z,10.85
2022-10-18T13:48:35.292Z,10.87
2022-10-18T13:52:06.103Z,10.88
2022-10-18T13:55:33.422Z,11.44
2022-10-18T13:59:05.829Z,11.47
2022-10-18T14:02:50.328Z,11.10
2022-10-18T14:05:57.851Z,11.29
2022-10-18T14:09:19.693Z,11.64
2022-10-18T14:12:43.257Z,11.51
2022-10-18T14:15:46.847Z,11.49
2022-10-18T14:18:52.383Z,11.73
2022-10-18T14:22:11.798Z,11.88
2022-10-18T14:25:27.456Z,11.57
2022-10-18T14:28:47.968Z,11.87
2022-10-18T14:31:54.831Z,11.99
2022-10-18T14:35:20.663Z,12.57
2022-10-18T14:38:21.062Z,12.38
2022-10-18T14:41:32.076Z,12.02
2022-10-18T14:44:35.385Z,12.31
2022-10-18T14:47:39.673Z,12.28
2022-10-18T14:50:45.562Z,12.48
2022-10-18T14:53:48.988Z,12.80
2022-10-18T14:56:52.013Z,12.44
2022-10-18T14:59:58.400Z,12.52
2022-10-18T15:03:02.671Z,12.27
2022-10-18T15:06:06.513Z,12.01
2022-10-18T15:09:10.697Z,12.97
2022-10-18T15:12:15.750Z,12.18
2022-10-18T15:15:25.210Z,12.62
2022-10-18T15:18:28.888Z,12.85
2022-10-18T15:21:32.275Z,13.11
2022-10-18T15:24:38.984Z,13.23
2022-10-18T15:27:49.570Z,12.76
2022-10-18T15:30:52.601Z,12.64
2022-10-18T15:34:21.154Z,12.52
2022-10-18T15:37:38.586Z,13.10
2022-10-18T15:40:42.301Z,13.43
2022-10-18T15:43:45.406Z,13.81
2022-10-18T15:46:50.882Z,13.90
2022-10-18T15:50:01.110Z,14.09
2022-10-18T15:53:34.500Z,14.32
2022-10-18T15:56:39.115Z,14.33
2022-10-18T15:59:58.974Z,14.02
2022-10-18T16:03:02.133Z,13.71
2022-10-18T16:06:07.907Z,14.48
2022-10-18T16:09:15.922Z,14.06
2022-10-18T16:12:19.315Z,14.24
2022-10-18T16:15:22.474Z,14.13
2022-10-18T16:18:26.275Z,14.61
2022-10-18T16:21:32.601Z,15.29
2022-10-18T16:24:35.777Z,14.99
2022-10-18T16:27:38.928Z,15.19
2022-10-18T16:30:44.218Z,15.77
2022-10-18T16:33:49.241Z,14.72
2022-10-18T16:36:54.656Z,15.33
2022-10-18T16:39:57.786Z,14.53
2022-10-18T16:43:00.847Z,15.22
2022-10-18T16:46:04.981Z,15.10
2022-10-18T16:49:08.377Z,14.42
2022-10-18T16:52:16.906Z,14.96
2022-10-18T16:55:19.985Z,15.10
2022-10-18T17:01:31.601Z,15.05
2022-10-18T17:04:34.706Z,15.20
2022-10-18T17:07:37.723Z,15.51
2022-10-18T17:10:43.232Z,15.74
2022-10-18T17:13:46.287Z,15.76
2022-10-18T17:16:53.092Z,15.61
2022-10-18T17:19:59.236Z,16.18
2022-10-18T17:23:02.326Z,15.74
2022-10-18T17:26:26.181Z,15.75
2022-10-18T17:29:28.530Z,16.45
2022-10-18T17:32:31.548Z,16.85
2022-10-18T17:35:34.727Z,15.76
2022-10-18T17:38:37.811Z,16.39
2022-10-18T17:41:40.876Z,15.48
2022-10-18T17:44:43.969Z,15.58
2022-10-18T17:47:47.180Z,15.80
2022-10-18T17:50:50.216Z,15.87
2022-10-18T17:53:53.290Z,15.93
2022-10-18T17:56:56.370Z,15.71
2022-10-18T17:59:59.400Z,16.27
2022-10-18T18:03:02.940Z,15.65
2022-10-18T18:06:14.129Z,16.26
2022-10-18T18:09:17.690Z,15.38
2022-10-18T18:12:20.842Z,16.10
2022-10-18T18:15:23.890Z,15.60
2022-10-18T18:18:26.934Z,16.07
2022-10-18T18:21:29.942Z,16.76
2022-10-18T18:24:33.084Z,16.49
2022-10-18T18:27:36.405Z,16.63
2022-10-18T18:30:40.731Z,16.62
2022-10-18T18:33:44.472Z,16.68
2022-10-18T18:36:47.669Z,16.37
2022-10-18T18:39:50.667Z,16.34
2022-10-18T18:43:07.087Z,16.02
2022-10-18T18:46:16.882Z,16.14
2022-10-18T18:49:20.074Z,16.40
2022-10-18T18:52:23.181Z,15.78
2022-10-18T18:55:26.316Z,16.06
2022-10-18T18:58:29.359Z,16.25
2022-10-18T19:01:35.619Z,16.58
2022-10-18T19:04:39.276Z,16.38
2022-10-18T19:07:42.666Z,16.26
2022-10-18T19:10:48.282Z,16.55
2022-10-18T19:13:51.383Z,16.49
2022-10-18T19:16:55.945Z,15.96
2022-10-18T19:19:59.011Z,16.02
2022-10-18T19:23:01.996Z,16.25
2022-10-18T19:26:32.446Z,15.87
2022-10-18T19:29:40.719Z,15.65
2022-10-18T19:32:43.875Z,16.16
2022-10-18T19:35:46.969Z,16.29
2022-10-18T19:38:50.032Z,16.50
2022-10-18T19:41:54.896Z,16.91
2022-10-18T19:44:58.041Z,16.35
2022-10-18T19:48:01.042Z,16.66
2022-10-18T19:51:07.068Z,16.65
2022-10-18T19:54:13.089Z,17.04
2022-10-18T19:57:16.135Z,16.65
2022-10-18T20:00:19.803Z,17.63
2022-10-18T20:03:24.364Z,17.47
2022-10-18T20:06:27.482Z,17.67
2022-10-18T20:09:30.716Z,17.90
2022-10-18T20:12:34.119Z,17.14
2022-10-18T20:15:39.810Z,16.91
2022-10-18T20:18:43.089Z,16.84
2022-10-18T20:21:46.246Z,17.64
2022-10-18T20:24:49.290Z,17.48
2022-10-18T20:27:52.391Z,16.95
2022-10-18T20:31:02.431Z,17.05
2022-10-18T20:34:10.816Z,16.73
2022-10-18T20:37:13.826Z,16.85
2022-10-18T20:40:17.531Z,17.13
2022-10-18T20:43:20.728Z,17.17
2022-10-18T20:46:24.323Z,16.64
2022-10-18T20:49:27.389Z,16.37
2022-10-18T20:52:30.473Z,16.80
2022-10-18T20:55:33.548Z,16.36
2022-10-18T20:58:37.105Z,16.21
2022-10-18T21:01:40.834Z,16.45
2022-10-18T21:04:43.986Z,16.79
2022-10-18T21:07:46.979Z,16.95
2022-10-18T21:10:50.094Z,16.82
2022-10-18T21:14:00.536Z,16.05
2022-10-18T21:17:06.165Z,16.30
2022-10-18T21:20:10.165Z,16.38
2022-10-18T21:23:13.229Z,16.61
2022-10-18T21:26:17.904Z,17.11
2022-10-18T21:29:22.549Z,16.77
2022-10-18T21:32:25.977Z,16.69
2022-10-18T21:35:29.077Z,16.91
2022-10-18T21:38:32.173Z,17.38
2022-10-18T21:41:35.673Z,17.19
2022-10-18T21:44:41.115Z,17.19
2022-10-18T21:47:49.530Z,18.22
2022-10-18T21:50:52.652Z,18.91
2022-10-18T21:53:57.712Z,19.08
2022-10-18T21:57:01.159Z,17.94
2022-10-18T22:00:06.116Z,17.32
2022-10-18T22:03:10.435Z,17.63
2022-10-18T22:06:14.401Z,17.04
2022-10-18T22:09:19.487Z,17.07
2022-10-18T22:12:22.718Z,18.01
2022-10-18T22:15:25.799Z,18.93
2022-10-18T22:18:31.402Z,19.05
2022-10-18T22:21:34.884Z,17.60
2022-10-18T22:24:38.018Z,17.98
2022-10-18T22:27:41.111Z,17.06
2022-10-18T22:30:44.178Z,16.33
2022-10-18T22:33:47.861Z,16.29
2022-10-18T22:36:51.176Z,16.32
2022-10-18T22:39:54.262Z,16.15
2022-10-18T22:42:57.471Z,15.92
2022-10-18T22:46:07.637Z,15.91
2022-10-18T22:49:12.092Z,15.96
2022-10-18T22:52:15.107Z,15.72
2022-10-18T22:55:18.329Z,15.86
2022-10-18T22:58:21.985Z,15.85
2022-10-18T23:01:25.607Z,15.23
2022-10-18T23:04:28.620Z,15.11
2022-10-18T23:07:31.710Z,15.46
2022-10-18T23:10:34.908Z,15.35
2022-10-18T23:13:39.620Z,15.34
2022-10-18T23:16:43.547Z,15.08
2022-10-18T23:19:47.561Z,15.06
2022-10-18T23:22:52.981Z,15.00
2022-10-18T23:25:56.678Z,15.11
2022-10-18T23:28:59.916Z,15.22
2022-10-18T23:32:03.030Z,15.11
2022-10-18T23:35:07.143Z,14.67
2022-10-18T23:38:10.222Z,14.66
2022-10-18T23:41:14.658Z,14.52
2022-10-18T23:44:17.686Z,14.96
2022-10-18T23:47:20.774Z,14.61
2022-10-18T23:50:23.872Z,14.55
2022-10-18T23:53:27.021Z,14.67
2022-10-18T23:56:30.112Z,14.57
2022-10-18T23:59:33.138Z,14.19
